Jaguarao, Brazil
Current Conditions -  °F | °C
As of 8:00 PM on Wednesday 28 Jan 2015 (Local Time) from SBPK Reporting Station
Thunderstorm Thunderstorm  
Wind Chill: 79°   Ceiling: 9000
Heat Index: 83°   Visibility: 6mi
Dew Point: 77°   Wind: 3mph
Humidity: 94%   Direction: 90°E
Pressure: 29.68"   Gusts: NA
Location:  32.57°S, 53.38°W
Report Text: SBPK 282200Z 09003KT 9999 TS SCT030 FEW040CB OVC090 26/25 Q1005
Loading
Personal Weather Stations






























Interactive Weather Map New forecast layout! Learn more

10-Day Weather Forecast

Advertisements
Track Severe Weather on mobile